createdAt,value
2018-06-04T05:19:07.590Z,84.20
2018-06-04T05:24:02.171Z,82.70
2018-06-04T05:28:56.740Z,82.90
2018-06-04T05:33:51.471Z,83.40
2018-06-04T05:38:46.139Z,83.70
2018-06-04T05:43:40.787Z,83.70
2018-06-04T05:48:35.333Z,83.00
2018-06-04T05:53:36.633Z,84.40
2018-06-04T05:58:31.146Z,84.20
2018-06-04T06:03:25.698Z,84.20
2018-06-04T06:08:20.268Z,86.60
2018-06-04T06:13:14.810Z,86.80
2018-06-04T06:18:09.410Z,87.90
2018-06-04T06:23:04.011Z,86.80
2018-06-04T06:27:58.606Z,87.20
2018-06-04T06:32:53.160Z,86.80
2018-06-04T06:37:47.734Z,87.30
2018-06-04T06:42:42.292Z,86.60
2018-06-04T06:47:36.827Z,87.10
2018-06-04T06:52:31.417Z,85.40
2018-06-04T06:57:25.917Z,83.30
2018-06-04T07:02:20.752Z,83.50
2018-06-04T07:07:15.306Z,80.00
2018-06-04T07:12:09.853Z,81.70
2018-06-04T07:17:04.425Z,78.90
2018-06-04T07:21:58.977Z,77.60
2018-06-04T07:31:47.780Z,78.30
2018-06-04T07:36:42.327Z,76.50
2018-06-04T07:41:36.926Z,73.60
2018-06-04T07:46:31.587Z,73.40
2018-06-04T07:51:26.166Z,73.70
2018-06-04T07:56:20.701Z,71.60
2018-06-04T08:01:15.280Z,76.30
2018-06-04T08:06:09.883Z,67.60
2018-06-04T08:11:04.471Z,69.60
2018-06-04T08:15:59.055Z,69.30
2018-06-04T08:20:53.607Z,67.80
2018-06-04T08:25:48.150Z,68.40
2018-06-04T08:30:42.724Z,66.30
2018-06-04T08:35:37.280Z,66.80
2018-06-04T08:40:31.827Z,62.90
2018-06-04T08:45:26.361Z,65.20
2018-06-04T08:50:20.926Z,68.70
2018-06-04T09:00:12.339Z,68.10
2018-06-04T09:05:06.923Z,64.80
2018-06-04T09:10:01.474Z,63.80
2018-06-04T09:14:56.060Z,65.00
2018-06-04T09:19:50.642Z,59.80
2018-06-04T09:24:45.219Z,61.60
2018-06-04T09:29:39.820Z,61.60
2018-06-04T09:34:35.418Z,60.30
2018-06-04T09:39:30.011Z,56.60
2018-06-04T09:44:24.645Z,58.40
2018-06-04T09:49:19.183Z,56.70
2018-06-04T09:54:13.839Z,56.60
2018-06-04T09:59:08.394Z,56.90
2018-06-04T10:04:03.094Z,58.00
2018-06-04T10:08:57.632Z,57.30
2018-06-04T10:13:52.203Z,58.10
2018-06-04T10:18:47.354Z,55.50
2018-06-04T10:23:41.964Z,59.20
2018-06-04T10:28:36.491Z,58.20
2018-06-04T10:33:31.054Z,57.90
2018-06-04T10:38:25.613Z,54.80
2018-06-04T10:43:20.154Z,58.90
2018-06-04T10:48:14.705Z,57.40
2018-06-04T10:53:09.283Z,57.90
2018-06-04T10:58:03.859Z,54.80
2018-06-04T11:02:58.404Z,55.80
2018-06-04T11:07:52.978Z,56.20
2018-06-04T11:12:47.587Z,55.80
2018-06-04T11:17:42.383Z,56.90
2018-06-04T11:22:36.943Z,55.80
2018-06-04T11:27:31.495Z,56.20
2018-06-04T11:32:26.088Z,54.10
2018-06-04T11:37:20.663Z,54.40
2018-06-04T11:42:15.240Z,52.20
2018-06-04T11:47:09.796Z,52.70
2018-06-04T11:52:04.423Z,52.40
2018-06-04T11:56:59.003Z,52.30
2018-06-04T12:01:53.585Z,49.60
2018-06-04T12:06:48.145Z,52.10
2018-06-04T12:11:42.707Z,53.40
2018-06-04T12:16:37.277Z,51.40
2018-06-04T12:21:31.862Z,48.50
2018-06-04T12:26:26.425Z,50.70
2018-06-04T12:31:20.995Z,49.40
2018-06-04T12:36:15.567Z,50.80
2018-06-04T12:41:10.226Z,52.00
2018-06-04T12:46:04.916Z,49.80
2018-06-04T12:50:59.510Z,50.40
2018-06-04T12:55:54.069Z,50.50
2018-06-04T13:00:48.594Z,50.40
2018-06-04T13:05:43.204Z,50.20
2018-06-04T13:10:37.780Z,50.20
2018-06-04T13:15:32.418Z,50.30
2018-06-04T13:20:27.033Z,46.30
2018-06-04T13:25:21.637Z,48.40
2018-06-04T13:30:16.215Z,49.20
2018-06-04T13:35:10.786Z,49.00
2018-06-04T13:44:59.632Z,51.20
2018-06-04T13:49:54.215Z,47.80
2018-06-04T13:59:43.048Z,47.10
2018-06-04T14:04:37.579Z,44.90
2018-06-04T14:09:32.163Z,45.10
2018-06-04T14:14:26.785Z,44.80
2018-06-04T14:19:21.346Z,45.50
2018-06-04T14:29:10.182Z,43.80
2018-06-04T14:34:04.785Z,42.40
2018-06-04T14:38:59.437Z,42.90
2018-06-04T14:43:53.999Z,46.20
2018-06-04T14:48:48.571Z,45.20
2018-06-04T14:58:37.379Z,44.90
2018-06-04T15:03:31.942Z,44.70
2018-06-04T15:08:26.498Z,44.50
2018-06-04T15:13:21.074Z,43.90
2018-06-04T15:18:15.680Z,46.20
2018-06-04T15:23:10.218Z,47.10
2018-06-04T15:32:59.086Z,44.30
2018-06-04T15:37:53.754Z,45.40
2018-06-04T15:42:48.311Z,44.60
2018-06-04T15:47:42.874Z,45.40
2018-06-04T15:52:37.455Z,47.10
2018-06-04T15:57:32.021Z,45.20
2018-06-04T16:02:26.596Z,46.50
2018-06-04T16:07:21.163Z,45.70
2018-06-04T16:12:15.757Z,46.80
2018-06-04T16:17:10.314Z,47.60
2018-06-04T16:22:04.913Z,54.30
2018-06-04T16:26:59.398Z,54.50
2018-06-04T16:31:53.951Z,56.80
2018-06-04T16:36:48.555Z,55.40
2018-06-04T16:41:43.137Z,56.90
2018-06-04T16:46:37.681Z,59.10
2018-06-04T16:51:32.259Z,60.00
2018-06-04T16:56:26.891Z,58.00
2018-06-04T17:01:21.495Z,57.60
2018-06-04T17:06:16.081Z,57.20
2018-06-04T17:11:10.619Z,57.70
2018-06-04T17:16:05.867Z,56.60
2018-06-04T17:21:00.424Z,56.40
2018-06-04T17:25:54.979Z,55.40
2018-06-04T17:30:49.600Z,53.50
2018-06-04T17:35:44.152Z,55.20
2018-06-04T17:40:38.710Z,58.80
2018-06-04T17:45:33.274Z,61.40
2018-06-04T17:50:27.839Z,62.20
2018-06-04T17:55:22.419Z,62.40
2018-06-04T18:00:17.026Z,62.10
2018-06-04T18:05:11.607Z,62.20
2018-06-04T18:10:06.276Z,61.30
2018-06-04T18:15:00.878Z,59.60
2018-06-04T18:19:55.524Z,61.30
2018-06-04T18:24:50.121Z,61.40
2018-06-04T18:29:44.722Z,60.80
2018-06-04T18:34:39.330Z,61.30
2018-06-04T18:39:33.955Z,61.60
2018-06-04T18:44:28.574Z,60.80
2018-06-04T18:49:23.071Z,61.10
2018-06-04T18:54:17.719Z,67.20
2018-06-04T18:59:12.305Z,73.60
2018-06-04T19:04:06.937Z,78.30
2018-06-04T19:09:01.623Z,79.60
2018-06-04T19:13:56.099Z,80.70
2018-06-04T19:18:50.720Z,81.40
2018-06-04T19:23:45.316Z,76.90
2018-06-04T19:28:39.931Z,77.70
2018-06-04T19:33:34.548Z,78.40
2018-06-04T19:38:29.167Z,76.90
2018-06-04T19:43:23.738Z,76.90
2018-06-04T19:48:18.357Z,73.50
2018-06-04T19:53:12.926Z,78.40
2018-06-04T19:58:07.514Z,79.80
2018-06-04T20:03:02.165Z,76.50
2018-06-04T20:07:56.708Z,76.80
2018-06-04T20:12:51.292Z,78.20
2018-06-04T20:17:45.819Z,75.10
2018-06-04T20:22:40.414Z,75.10
2018-06-04T20:27:34.978Z,77.80
2018-06-04T20:32:29.560Z,78.30
2018-06-04T20:37:24.117Z,77.70
2018-06-04T20:42:18.729Z,78.50
2018-06-04T20:47:13.347Z,79.40
2018-06-04T20:52:08.036Z,78.50
2018-06-04T20:57:02.622Z,79.40
2018-06-04T21:01:57.218Z,77.90
2018-06-04T21:06:51.794Z,78.60
2018-06-04T21:11:46.404Z,82.90
2018-06-04T21:16:40.971Z,86.50
2018-06-04T21:21:35.512Z,88.20
2018-06-04T21:26:30.277Z,90.20
2018-06-04T21:31:24.840Z,90.00
2018-06-04T21:36:19.406Z,90.40
2018-06-04T21:41:14.000Z,90.50
2018-06-04T21:51:02.796Z,90.80
2018-06-04T22:00:51.769Z,90.50
2018-06-04T22:05:46.346Z,90.30
2018-06-04T22:10:40.949Z,90.20
2018-06-04T22:15:35.560Z,90.00
2018-06-04T22:20:30.163Z,90.40
2018-06-04T22:25:24.747Z,90.40
2018-06-04T22:30:19.302Z,90.50
2018-06-04T22:35:13.838Z,90.80
2018-06-04T22:40:08.407Z,90.90
2018-06-04T22:45:02.970Z,90.90
2018-06-04T22:49:57.550Z,91.20
2018-06-04T22:54:52.140Z,91.30
2018-06-04T22:59:46.697Z,91.70
2018-06-04T23:04:41.241Z,91.80
2018-06-04T23:09:35.778Z,91.80
2018-06-04T23:14:30.298Z,91.60
2018-06-04T23:19:24.876Z,91.60
2018-06-04T23:24:19.453Z,92.30
2018-06-04T23:29:13.958Z,92.20
2018-06-04T23:34:08.514Z,92.10
2018-06-04T23:39:03.124Z,92.20
2018-06-04T23:43:57.731Z,92.50
2018-06-04T23:48:52.253Z,92.70
2018-06-04T23:53:46.805Z,92.80
2018-06-04T23:58:41.314Z,92.50
